sensor_id;sensor_type;location;lat;lon;timestamp;P1;durP1;ratioP1;P2;durP2;ratioP2
1679;SDS011;838;51.794;12.258;2023-06-14T00:00:20;2.40;;;1.40;;
1679;SDS011;838;51.794;12.258;2023-06-14T00:02:46;2.60;;;1.80;;
1679;SDS011;838;51.794;12.258;2023-06-14T00:05:13;3.27;;;2.10;;
1679;SDS011;838;51.794;12.258;2023-06-14T00:07:39;2.53;;;1.40;;
1679;SDS011;838;51.794;12.258;2023-06-14T00:10:10;5.83;;;2.07;;
1679;SDS011;838;51.794;12.258;2023-06-14T00:12:36;3.57;;;2.17;;
1679;SDS011;838;51.794;12.258;2023-06-14T00:15:03;2.73;;;1.67;;
1679;SDS011;838;51.794;12.258;2023-06-14T00:17:29;2.80;;;1.93;;
1679;SDS011;838;51.794;12.258;2023-06-14T00:19:56;2.73;;;1.83;;
1679;SDS011;838;51.794;12.258;2023-06-14T00:22:22;3.50;;;1.83;;
1679;SDS011;838;51.794;12.258;2023-06-14T00:24:50;3.40;;;1.90;;
1679;SDS011;838;51.794;12.258;2023-06-14T00:27:16;3.50;;;1.93;;
1679;SDS011;838;51.794;12.258;2023-06-14T00:29:41;3.00;;;1.87;;
1679;SDS011;838;51.794;12.258;2023-06-14T00:32:07;3.23;;;2.00;;
1679;SDS011;838;51.794;12.258;2023-06-14T00:34:33;5.93;;;1.90;;
1679;SDS011;838;51.794;12.258;2023-06-14T00:36:59;3.20;;;2.00;;
1679;SDS011;838;51.794;12.258;2023-06-14T00:39:25;3.83;;;2.00;;
1679;SDS011;838;51.794;12.258;2023-06-14T00:41:51;3.10;;;1.73;;
1679;SDS011;838;51.794;12.258;2023-06-14T00:44:17;3.90;;;1.80;;
1679;SDS011;838;51.794;12.258;2023-06-14T00:46:44;3.30;;;2.03;;
1679;SDS011;838;51.794;12.258;2023-06-14T00:49:10;3.97;;;1.80;;
1679;SDS011;838;51.794;12.258;2023-06-14T00:51:39;5.20;;;2.27;;
1679;SDS011;838;51.794;12.258;2023-06-14T00:54:05;2.77;;;1.83;;
1679;SDS011;838;51.794;12.258;2023-06-14T00:56:30;3.17;;;2.20;;
1679;SDS011;838;51.794;12.258;2023-06-14T00:58:56;2.60;;;1.70;;
1679;SDS011;838;51.794;12.258;2023-06-14T01:01:23;3.50;;;1.83;;
1679;SDS011;838;51.794;12.258;2023-06-14T01:03:49;3.13;;;1.87;;
1679;SDS011;838;51.794;12.258;2023-06-14T01:09:50;3.97;;;1.93;;
1679;SDS011;838;51.794;12.258;2023-06-14T01:15:16;3.17;;;1.70;;
1679;SDS011;838;51.794;12.258;2023-06-14T01:17:44;3.67;;;2.43;;
1679;SDS011;838;51.794;12.258;2023-06-14T01:20:12;2.73;;;1.97;;
1679;SDS011;838;51.794;12.258;2023-06-14T01:22:50;3.87;;;2.23;;
1679;SDS011;838;51.794;12.258;2023-06-14T01:25:20;3.37;;;2.23;;
1679;SDS011;838;51.794;12.258;2023-06-14T01:28:05;3.10;;;2.20;;
1679;SDS011;838;51.794;12.258;2023-06-14T01:30:37;3.33;;;2.07;;
1679;SDS011;838;51.794;12.258;2023-06-14T01:33:07;3.13;;;2.00;;
1679;SDS011;838;51.794;12.258;2023-06-14T01:35:34;3.40;;;1.73;;
1679;SDS011;838;51.794;12.258;2023-06-14T01:38:00;2.90;;;1.70;;
1679;SDS011;838;51.794;12.258;2023-06-14T01:40:26;3.33;;;1.80;;
1679;SDS011;838;51.794;12.258;2023-06-14T01:42:53;2.80;;;2.07;;
1679;SDS011;838;51.794;12.258;2023-06-14T01:45:19;2.80;;;1.90;;
1679;SDS011;838;51.794;12.258;2023-06-14T01:47:45;2.90;;;2.17;;
1679;SDS011;838;51.794;12.258;2023-06-14T01:50:12;2.93;;;1.90;;
1679;SDS011;838;51.794;12.258;2023-06-14T01:52:38;2.93;;;2.23;;
1679;SDS011;838;51.794;12.258;2023-06-14T01:55:05;3.10;;;2.20;;
1679;SDS011;838;51.794;12.258;2023-06-14T01:57:31;3.70;;;2.60;;
1679;SDS011;838;51.794;12.258;2023-06-14T01:59:57;3.73;;;2.40;;
1679;SDS011;838;51.794;12.258;2023-06-14T02:02:22;3.07;;;2.07;;
1679;SDS011;838;51.794;12.258;2023-06-14T02:04:48;3.30;;;2.40;;
1679;SDS011;838;51.794;12.258;2023-06-14T02:07:14;5.43;;;2.20;;
1679;SDS011;838;51.794;12.258;2023-06-14T02:09:40;3.60;;;2.23;;
1679;SDS011;838;51.794;12.258;2023-06-14T02:12:06;4.03;;;2.10;;
1679;SDS011;838;51.794;12.258;2023-06-14T02:14:32;2.60;;;1.77;;
1679;SDS011;838;51.794;12.258;2023-06-14T02:16:58;2.90;;;1.87;;
1679;SDS011;838;51.794;12.258;2023-06-14T02:19:25;6.73;;;2.40;;
1679;SDS011;838;51.794;12.258;2023-06-14T02:21:51;4.37;;;2.60;;
1679;SDS011;838;51.794;12.258;2023-06-14T02:24:17;3.17;;;2.07;;
1679;SDS011;838;51.794;12.258;2023-06-14T02:26:43;2.97;;;1.90;;
1679;SDS011;838;51.794;12.258;2023-06-14T02:29:09;2.90;;;2.00;;
1679;SDS011;838;51.794;12.258;2023-06-14T02:31:37;2.90;;;2.10;;
1679;SDS011;838;51.794;12.258;2023-06-14T02:34:03;4.63;;;2.20;;
1679;SDS011;838;51.794;12.258;2023-06-14T02:36:29;4.83;;;1.90;;
1679;SDS011;838;51.794;12.258;2023-06-14T02:38:55;4.53;;;2.20;;
1679;SDS011;838;51.794;12.258;2023-06-14T02:41:24;3.13;;;2.10;;
1679;SDS011;838;51.794;12.258;2023-06-14T02:43:51;3.67;;;2.30;;
1679;SDS011;838;51.794;12.258;2023-06-14T02:46:17;3.57;;;2.20;;
1679;SDS011;838;51.794;12.258;2023-06-14T02:48:43;3.80;;;2.77;;
1679;SDS011;838;51.794;12.258;2023-06-14T02:51:09;3.30;;;2.60;;
1679;SDS011;838;51.794;12.258;2023-06-14T02:53:35;4.53;;;2.90;;
1679;SDS011;838;51.794;12.258;2023-06-14T02:56:01;3.03;;;2.23;;
1679;SDS011;838;51.794;12.258;2023-06-14T02:58:29;3.23;;;2.47;;
1679;SDS011;838;51.794;12.258;2023-06-14T03:00:55;3.20;;;2.30;;
1679;SDS011;838;51.794;12.258;2023-06-14T03:03:21;3.53;;;2.27;;
1679;SDS011;838;51.794;12.258;2023-06-14T03:05:49;5.07;;;2.90;;
1679;SDS011;838;51.794;12.258;2023-06-14T03:08:16;2.97;;;2.27;;
1679;SDS011;838;51.794;12.258;2023-06-14T03:10:44;4.60;;;3.00;;
1679;SDS011;838;51.794;12.258;2023-06-14T03:13:11;2.93;;;2.13;;
1679;SDS011;838;51.794;12.258;2023-06-14T03:15:37;3.30;;;2.50;;
1679;SDS011;838;51.794;12.258;2023-06-14T03:18:03;3.23;;;2.13;;
1679;SDS011;838;51.794;12.258;2023-06-14T03:20:29;3.27;;;2.27;;
1679;SDS011;838;51.794;12.258;2023-06-14T03:22:59;3.70;;;2.60;;
1679;SDS011;838;51.794;12.258;2023-06-14T03:25:25;4.27;;;2.80;;
1679;SDS011;838;51.794;12.258;2023-06-14T03:27:57;5.33;;;3.13;;
1679;SDS011;838;51.794;12.258;2023-06-14T03:30:22;4.43;;;2.87;;
1679;SDS011;838;51.794;12.258;2023-06-14T03:32:48;4.73;;;2.50;;
1679;SDS011;838;51.794;12.258;2023-06-14T03:35:14;4.40;;;3.20;;
1679;SDS011;838;51.794;12.258;2023-06-14T03:37:45;4.80;;;2.90;;
1679;SDS011;838;51.794;12.258;2023-06-14T03:40:12;4.17;;;3.40;;
1679;SDS011;838;51.794;12.258;2023-06-14T03:42:39;4.33;;;2.93;;
1679;SDS011;838;51.794;12.258;2023-06-14T03:45:05;5.03;;;3.10;;
1679;SDS011;838;51.794;12.258;2023-06-14T03:47:32;3.63;;;2.67;;
1679;SDS011;838;51.794;12.258;2023-06-14T03:49:59;6.60;;;3.00;;
1679;SDS011;838;51.794;12.258;2023-06-14T03:52:26;4.50;;;2.67;;
1679;SDS011;838;51.794;12.258;2023-06-14T03:54:52;5.67;;;2.87;;
1679;SDS011;838;51.794;12.258;2023-06-14T03:57:18;3.77;;;2.97;;
1679;SDS011;838;51.794;12.258;2023-06-14T03:59:44;3.40;;;2.83;;
1679;SDS011;838;51.794;12.258;2023-06-14T04:02:09;3.40;;;2.50;;
1679;SDS011;838;51.794;12.258;2023-06-14T04:04:35;3.23;;;2.47;;
1679;SDS011;838;51.794;12.258;2023-06-14T04:07:01;4.40;;;2.77;;
1679;SDS011;838;51.794;12.258;2023-06-14T04:09:30;4.80;;;3.20;;
1679;SDS011;838;51.794;12.258;2023-06-14T04:11:56;5.80;;;3.30;;
1679;SDS011;838;51.794;12.258;2023-06-14T04:14:22;4.33;;;3.70;;
1679;SDS011;838;51.794;12.258;2023-06-14T04:16:48;8.30;;;3.70;;
1679;SDS011;838;51.794;12.258;2023-06-14T04:19:15;4.10;;;3.00;;
1679;SDS011;838;51.794;12.258;2023-06-14T04:21:41;5.50;;;3.33;;
1679;SDS011;838;51.794;12.258;2023-06-14T04:24:07;4.50;;;3.57;;
1679;SDS011;838;51.794;12.258;2023-06-14T04:26:42;4.13;;;3.37;;
1679;SDS011;838;51.794;12.258;2023-06-14T04:29:12;4.70;;;3.60;;
1679;SDS011;838;51.794;12.258;2023-06-14T04:31:45;5.47;;;2.93;;
1679;SDS011;838;51.794;12.258;2023-06-14T04:34:11;5.00;;;3.53;;
1679;SDS011;838;51.794;12.258;2023-06-14T04:36:44;5.50;;;3.07;;
1679;SDS011;838;51.794;12.258;2023-06-14T04:39:18;4.83;;;3.30;;
1679;SDS011;838;51.794;12.258;2023-06-14T04:41:48;7.93;;;3.37;;
1679;SDS011;838;51.794;12.258;2023-06-14T04:44:18;3.70;;;3.03;;
1679;SDS011;838;51.794;12.258;2023-06-14T04:46:45;5.33;;;3.40;;
1679;SDS011;838;51.794;12.258;2023-06-14T04:49:14;3.77;;;2.90;;
1679;SDS011;838;51.794;12.258;2023-06-14T04:51:42;4.57;;;3.47;;
1679;SDS011;838;51.794;12.258;2023-06-14T04:54:08;4.27;;;3.00;;
1679;SDS011;838;51.794;12.258;2023-06-14T04:56:43;4.27;;;3.20;;
1679;SDS011;838;51.794;12.258;2023-06-14T04:59:10;4.77;;;3.43;;
1679;SDS011;838;51.794;12.258;2023-06-14T05:01:39;3.83;;;3.37;;
1679;SDS011;838;51.794;12.258;2023-06-14T05:04:06;4.60;;;3.23;;
1679;SDS011;838;51.794;12.258;2023-06-14T05:06:31;5.80;;;3.23;;
1679;SDS011;838;51.794;12.258;2023-06-14T05:08:57;4.33;;;3.30;;
1679;SDS011;838;51.794;12.258;2023-06-14T05:11:23;5.27;;;3.67;;
1679;SDS011;838;51.794;12.258;2023-06-14T05:13:49;5.10;;;4.20;;
1679;SDS011;838;51.794;12.258;2023-06-14T05:16:16;5.97;;;4.27;;
1679;SDS011;838;51.794;12.258;2023-06-14T05:18:44;4.57;;;3.70;;
1679;SDS011;838;51.794;12.258;2023-06-14T05:21:12;4.83;;;3.93;;
1679;SDS011;838;51.794;12.258;2023-06-14T05:23:38;6.37;;;3.87;;
1679;SDS011;838;51.794;12.258;2023-06-14T05:26:03;5.43;;;4.20;;
1679;SDS011;838;51.794;12.258;2023-06-14T05:28:29;5.90;;;4.50;;
1679;SDS011;838;51.794;12.258;2023-06-14T05:30:56;5.50;;;4.13;;
1679;SDS011;838;51.794;12.258;2023-06-14T05:33:24;4.73;;;3.73;;
1679;SDS011;838;51.794;12.258;2023-06-14T05:35:49;4.80;;;3.87;;
1679;SDS011;838;51.794;12.258;2023-06-14T05:38:15;4.80;;;3.97;;
1679;SDS011;838;51.794;12.258;2023-06-14T05:40:41;5.23;;;4.10;;
1679;SDS011;838;51.794;12.258;2023-06-14T05:43:07;5.70;;;4.50;;
1679;SDS011;838;51.794;12.258;2023-06-14T05:45:32;5.43;;;3.93;;
1679;SDS011;838;51.794;12.258;2023-06-14T05:47:58;4.80;;;4.00;;
1679;SDS011;838;51.794;12.258;2023-06-14T05:50:24;5.17;;;3.70;;
1679;SDS011;838;51.794;12.258;2023-06-14T05:52:49;9.70;;;5.60;;
1679;SDS011;838;51.794;12.258;2023-06-14T05:55:18;5.30;;;3.70;;
1679;SDS011;838;51.794;12.258;2023-06-14T05:57:44;5.90;;;3.83;;
1679;SDS011;838;51.794;12.258;2023-06-14T06:00:11;4.53;;;3.50;;
1679;SDS011;838;51.794;12.258;2023-06-14T06:02:39;5.43;;;3.30;;
1679;SDS011;838;51.794;12.258;2023-06-14T06:05:07;3.93;;;2.97;;
1679;SDS011;838;51.794;12.258;2023-06-14T06:07:33;4.43;;;3.37;;
1679;SDS011;838;51.794;12.258;2023-06-14T06:09:59;4.20;;;3.20;;
1679;SDS011;838;51.794;12.258;2023-06-14T06:12:25;5.63;;;3.30;;
1679;SDS011;838;51.794;12.258;2023-06-14T06:14:51;3.70;;;2.73;;
1679;SDS011;838;51.794;12.258;2023-06-14T06:17:16;4.23;;;3.27;;
1679;SDS011;838;51.794;12.258;2023-06-14T06:19:42;4.03;;;3.27;;
1679;SDS011;838;51.794;12.258;2023-06-14T06:22:08;5.93;;;3.70;;
1679;SDS011;838;51.794;12.258;2023-06-14T06:24:33;4.37;;;3.30;;
1679;SDS011;838;51.794;12.258;2023-06-14T06:26:59;3.50;;;2.70;;
1679;SDS011;838;51.794;12.258;2023-06-14T06:29:25;6.10;;;3.80;;
1679;SDS011;838;51.794;12.258;2023-06-14T06:31:51;4.37;;;3.40;;
1679;SDS011;838;51.794;12.258;2023-06-14T06:34:17;3.57;;;2.83;;
1679;SDS011;838;51.794;12.258;2023-06-14T06:36:42;5.60;;;3.90;;
1679;SDS011;838;51.794;12.258;2023-06-14T06:39:08;4.07;;;2.93;;
1679;SDS011;838;51.794;12.258;2023-06-14T06:41:35;4.57;;;3.10;;
1679;SDS011;838;51.794;12.258;2023-06-14T06:44:03;3.57;;;2.90;;
1679;SDS011;838;51.794;12.258;2023-06-14T06:46:28;4.50;;;3.37;;
1679;SDS011;838;51.794;12.258;2023-06-14T06:48:54;4.90;;;3.60;;
1679;SDS011;838;51.794;12.258;2023-06-14T06:51:20;4.53;;;3.50;;
1679;SDS011;838;51.794;12.258;2023-06-14T06:53:51;4.50;;;2.93;;
1679;SDS011;838;51.794;12.258;2023-06-14T06:56:18;4.50;;;3.33;;
1679;SDS011;838;51.794;12.258;2023-06-14T06:58:44;4.37;;;3.63;;
1679;SDS011;838;51.794;12.258;2023-06-14T07:01:10;6.00;;;3.70;;
1679;SDS011;838;51.794;12.258;2023-06-14T07:03:36;5.03;;;3.60;;
1679;SDS011;838;51.794;12.258;2023-06-14T07:06:02;4.80;;;3.03;;
1679;SDS011;838;51.794;12.258;2023-06-14T07:08:28;4.73;;;3.83;;
1679;SDS011;838;51.794;12.258;2023-06-14T07:10:54;4.50;;;3.57;;
1679;SDS011;838;51.794;12.258;2023-06-14T07:13:21;4.80;;;3.50;;
1679;SDS011;838;51.794;12.258;2023-06-14T07:15:47;5.20;;;3.70;;
1679;SDS011;838;51.794;12.258;2023-06-14T07:18:13;4.60;;;3.80;;
1679;SDS011;838;51.794;12.258;2023-06-14T07:20:38;4.73;;;3.77;;
1679;SDS011;838;51.794;12.258;2023-06-14T07:23:05;5.07;;;4.37;;
1679;SDS011;838;51.794;12.258;2023-06-14T07:25:31;4.90;;;3.80;;
1679;SDS011;838;51.794;12.258;2023-06-14T07:27:56;4.67;;;3.97;;
1679;SDS011;838;51.794;12.258;2023-06-14T07:30:22;4.77;;;4.00;;
1679;SDS011;838;51.794;12.258;2023-06-14T07:32:51;3.90;;;3.30;;
1679;SDS011;838;51.794;12.258;2023-06-14T07:35:18;6.97;;;3.90;;
1679;SDS011;838;51.794;12.258;2023-06-14T07:37:43;5.90;;;3.67;;
1679;SDS011;838;51.794;12.258;2023-06-14T07:40:10;4.87;;;3.37;;
1679;SDS011;838;51.794;12.258;2023-06-14T07:42:37;3.70;;;2.70;;
1679;SDS011;838;51.794;12.258;2023-06-14T07:45:03;5.17;;;3.40;;
1679;SDS011;838;51.794;12.258;2023-06-14T07:47:30;4.90;;;3.30;;
1679;SDS011;838;51.794;12.258;2023-06-14T07:49:56;4.00;;;2.87;;
1679;SDS011;838;51.794;12.258;2023-06-14T07:52:21;3.43;;;2.27;;
1679;SDS011;838;51.794;12.258;2023-06-14T07:54:47;4.53;;;3.30;;
1679;SDS011;838;51.794;12.258;2023-06-14T07:57:13;3.07;;;2.17;;
1679;SDS011;838;51.794;12.258;2023-06-14T07:59:38;4.20;;;2.70;;
1679;SDS011;838;51.794;12.258;2023-06-14T08:02:04;4.30;;;2.60;;
1679;SDS011;838;51.794;12.258;2023-06-14T08:04:31;3.40;;;1.77;;
1679;SDS011;838;51.794;12.258;2023-06-14T08:06:57;4.10;;;1.80;;
1679;SDS011;838;51.794;12.258;2023-06-14T08:09:23;2.90;;;1.83;;
1679;SDS011;838;51.794;12.258;2023-06-14T08:11:50;3.13;;;2.00;;
1679;SDS011;838;51.794;12.258;2023-06-14T08:14:15;3.20;;;1.83;;
1679;SDS011;838;51.794;12.258;2023-06-14T08:16:41;2.80;;;2.30;;
1679;SDS011;838;51.794;12.258;2023-06-14T08:19:07;3.87;;;2.50;;
1679;SDS011;838;51.794;12.258;2023-06-14T08:21:33;3.20;;;2.30;;
1679;SDS011;838;51.794;12.258;2023-06-14T08:24:01;4.83;;;2.50;;
1679;SDS011;838;51.794;12.258;2023-06-14T08:26:28;4.00;;;2.90;;
1679;SDS011;838;51.794;12.258;2023-06-14T08:28:55;4.50;;;2.37;;
1679;SDS011;838;51.794;12.258;2023-06-14T08:31:21;4.40;;;2.30;;
1679;SDS011;838;51.794;12.258;2023-06-14T08:33:47;3.47;;;2.33;;
1679;SDS011;838;51.794;12.258;2023-06-14T08:36:13;3.03;;;2.27;;
1679;SDS011;838;51.794;12.258;2023-06-14T08:38:39;4.00;;;2.07;;
1679;SDS011;838;51.794;12.258;2023-06-14T08:41:05;3.23;;;2.30;;
1679;SDS011;838;51.794;12.258;2023-06-14T08:43:31;3.33;;;2.40;;
1679;SDS011;838;51.794;12.258;2023-06-14T08:45:58;2.67;;;1.77;;
1679;SDS011;838;51.794;12.258;2023-06-14T08:48:28;3.20;;;2.10;;
1679;SDS011;838;51.794;12.258;2023-06-14T08:50:55;3.33;;;2.30;;
1679;SDS011;838;51.794;12.258;2023-06-14T08:53:27;3.77;;;2.67;;
1679;SDS011;838;51.794;12.258;2023-06-14T08:55:57;2.73;;;1.67;;
1679;SDS011;838;51.794;12.258;2023-06-14T08:58:27;3.03;;;1.63;;
1679;SDS011;838;51.794;12.258;2023-06-14T09:00:58;2.80;;;1.97;;
1679;SDS011;838;51.794;12.258;2023-06-14T09:03:26;3.20;;;2.20;;
1679;SDS011;838;51.794;12.258;2023-06-14T09:05:57;2.80;;;1.80;;
1679;SDS011;838;51.794;12.258;2023-06-14T09:08:27;3.47;;;2.00;;
1679;SDS011;838;51.794;12.258;2023-06-14T09:10:56;3.57;;;1.80;;
1679;SDS011;838;51.794;12.258;2023-06-14T09:13:22;3.07;;;1.80;;
1679;SDS011;838;51.794;12.258;2023-06-14T09:15:48;3.70;;;2.07;;
1679;SDS011;838;51.794;12.258;2023-06-14T09:18:14;2.93;;;1.70;;
1679;SDS011;838;51.794;12.258;2023-06-14T09:20:40;3.53;;;2.17;;
1679;SDS011;838;51.794;12.258;2023-06-14T09:23:06;2.67;;;1.77;;
1679;SDS011;838;51.794;12.258;2023-06-14T09:25:36;2.80;;;1.77;;
1679;SDS011;838;51.794;12.258;2023-06-14T09:28:08;3.47;;;2.27;;
1679;SDS011;838;51.794;12.258;2023-06-14T09:30:38;2.93;;;2.00;;
1679;SDS011;838;51.794;12.258;2023-06-14T09:33:04;4.40;;;3.20;;
1679;SDS011;838;51.794;12.258;2023-06-14T09:35:33;3.30;;;2.17;;
1679;SDS011;838;51.794;12.258;2023-06-14T09:37:59;4.63;;;2.20;;
1679;SDS011;838;51.794;12.258;2023-06-14T09:40:25;3.57;;;2.00;;
1679;SDS011;838;51.794;12.258;2023-06-14T09:42:51;6.10;;;2.37;;
1679;SDS011;838;51.794;12.258;2023-06-14T09:45:18;4.30;;;2.53;;
1679;SDS011;838;51.794;12.258;2023-06-14T09:47:48;3.10;;;1.80;;
1679;SDS011;838;51.794;12.258;2023-06-14T09:50:14;3.67;;;2.40;;
1679;SDS011;838;51.794;12.258;2023-06-14T09:52:41;3.30;;;2.13;;
1679;SDS011;838;51.794;12.258;2023-06-14T09:55:12;4.73;;;2.50;;
1679;SDS011;838;51.794;12.258;2023-06-14T09:57:40;2.80;;;1.87;;
1679;SDS011;838;51.794;12.258;2023-06-14T10:00:10;5.10;;;2.40;;
1679;SDS011;838;51.794;12.258;2023-06-14T10:02:38;5.13;;;2.77;;
1679;SDS011;838;51.794;12.258;2023-06-14T10:05:08;4.00;;;2.30;;
1679;SDS011;838;51.794;12.258;2023-06-14T10:10:12;3.23;;;2.07;;
1679;SDS011;838;51.794;12.258;2023-06-14T10:12:38;4.23;;;2.70;;
1679;SDS011;838;51.794;12.258;2023-06-14T10:15:04;4.00;;;2.90;;
1679;SDS011;838;51.794;12.258;2023-06-14T10:17:41;4.20;;;2.27;;
1679;SDS011;838;51.794;12.258;2023-06-14T10:21:08;3.73;;;2.20;;
1679;SDS011;838;51.794;12.258;2023-06-14T10:23:35;2.87;;;1.83;;
1679;SDS011;838;51.794;12.258;2023-06-14T10:26:03;3.67;;;2.50;;
1679;SDS011;838;51.794;12.258;2023-06-14T10:28:28;2.80;;;1.90;;
1679;SDS011;838;51.794;12.258;2023-06-14T10:33:31;6.00;;;2.67;;
1679;SDS011;838;51.794;12.258;2023-06-14T10:36:07;4.27;;;2.60;;
1679;SDS011;838;51.794;12.258;2023-06-14T10:38:35;2.87;;;2.27;;
1679;SDS011;838;51.794;12.258;2023-06-14T10:41:02;3.00;;;2.30;;
1679;SDS011;838;51.794;12.258;2023-06-14T10:43:30;3.17;;;2.20;;
1679;SDS011;838;51.794;12.258;2023-06-14T10:46:12;6.43;;;1.90;;
1679;SDS011;838;51.794;12.258;2023-06-14T10:48:46;4.43;;;2.93;;
1679;SDS011;838;51.794;12.258;2023-06-14T10:51:19;4.40;;;2.27;;
1679;SDS011;838;51.794;12.258;2023-06-14T10:53:46;3.10;;;2.60;;
1679;SDS011;838;51.794;12.258;2023-06-14T10:56:23;3.90;;;2.47;;
1679;SDS011;838;51.794;12.258;2023-06-14T10:58:54;3.67;;;2.40;;
1679;SDS011;838;51.794;12.258;2023-06-14T11:01:23;3.57;;;1.87;;
1679;SDS011;838;51.794;12.258;2023-06-14T11:04:00;3.47;;;2.60;;
1679;SDS011;838;51.794;12.258;2023-06-14T11:11:59;3.00;;;1.90;;
1679;SDS011;838;51.794;12.258;2023-06-14T11:14:29;4.30;;;2.83;;
1679;SDS011;838;51.794;12.258;2023-06-14T11:16:56;4.30;;;2.30;;
1679;SDS011;838;51.794;12.258;2023-06-14T11:19:22;6.80;;;2.57;;
1679;SDS011;838;51.794;12.258;2023-06-14T11:21:48;3.70;;;2.40;;
1679;SDS011;838;51.794;12.258;2023-06-14T11:24:14;4.73;;;2.80;;
1679;SDS011;838;51.794;12.258;2023-06-14T11:26:41;3.37;;;2.23;;
1679;SDS011;838;51.794;12.258;2023-06-14T11:29:07;3.93;;;2.57;;
1679;SDS011;838;51.794;12.258;2023-06-14T11:31:33;3.77;;;2.23;;
1679;SDS011;838;51.794;12.258;2023-06-14T11:33:59;3.53;;;2.40;;
1679;SDS011;838;51.794;12.258;2023-06-14T11:36:29;5.33;;;2.80;;
1679;SDS011;838;51.794;12.258;2023-06-14T11:39:02;4.57;;;2.53;;
1679;SDS011;838;51.794;12.258;2023-06-14T11:42:04;3.50;;;2.37;;
1679;SDS011;838;51.794;12.258;2023-06-14T11:44:26;3.30;;;2.20;;
1679;SDS011;838;51.794;12.258;2023-06-14T11:46:51;3.30;;;2.40;;
1679;SDS011;838;51.794;12.258;2023-06-14T11:49:17;3.27;;;2.53;;
1679;SDS011;838;51.794;12.258;2023-06-14T11:51:43;5.17;;;2.37;;
1679;SDS011;838;51.794;12.258;2023-06-14T11:54:09;4.97;;;2.40;;
1679;SDS011;838;51.794;12.258;2023-06-14T11:56:36;6.13;;;2.67;;
1679;SDS011;838;51.794;12.258;2023-06-14T11:59:02;3.23;;;2.20;;
1679;SDS011;838;51.794;12.258;2023-06-14T12:01:30;3.67;;;2.33;;
1679;SDS011;838;51.794;12.258;2023-06-14T12:03:56;3.40;;;2.00;;
1679;SDS011;838;51.794;12.258;2023-06-14T12:06:27;3.53;;;2.10;;
1679;SDS011;838;51.794;12.258;2023-06-14T12:08:57;3.20;;;2.30;;
1679;SDS011;838;51.794;12.258;2023-06-14T12:11:23;3.43;;;2.30;;
1679;SDS011;838;51.794;12.258;2023-06-14T12:13:53;3.50;;;2.47;;
1679;SDS011;838;51.794;12.258;2023-06-14T12:16:19;3.53;;;2.20;;
1679;SDS011;838;51.794;12.258;2023-06-14T12:18:45;2.90;;;1.97;;
1679;SDS011;838;51.794;12.258;2023-06-14T12:21:11;3.90;;;2.20;;
1679;SDS011;838;51.794;12.258;2023-06-14T12:23:43;3.30;;;2.40;;
1679;SDS011;838;51.794;12.258;2023-06-14T12:26:12;2.90;;;2.07;;
1679;SDS011;838;51.794;12.258;2023-06-14T12:28:40;3.43;;;2.33;;
1679;SDS011;838;51.794;12.258;2023-06-14T12:31:07;2.70;;;2.00;;
1679;SDS011;838;51.794;12.258;2023-06-14T12:33:32;2.63;;;1.67;;
1679;SDS011;838;51.794;12.258;2023-06-14T12:35:58;4.07;;;2.07;;
1679;SDS011;838;51.794;12.258;2023-06-14T12:38:25;4.47;;;2.00;;
1679;SDS011;838;51.794;12.258;2023-06-14T12:40:51;2.60;;;1.73;;
1679;SDS011;838;51.794;12.258;2023-06-14T12:43:17;4.50;;;2.60;;
1679;SDS011;838;51.794;12.258;2023-06-14T12:45:43;3.33;;;2.40;;
1679;SDS011;838;51.794;12.258;2023-06-14T12:48:09;3.03;;;2.10;;
1679;SDS011;838;51.794;12.258;2023-06-14T12:50:34;3.67;;;2.27;;
1679;SDS011;838;51.794;12.258;2023-06-14T12:53:00;3.53;;;2.20;;
1679;SDS011;838;51.794;12.258;2023-06-14T12:55:26;2.80;;;2.20;;
1679;SDS011;838;51.794;12.258;2023-06-14T12:57:51;3.50;;;2.00;;
1679;SDS011;838;51.794;12.258;2023-06-14T13:00:17;3.33;;;2.13;;
1679;SDS011;838;51.794;12.258;2023-06-14T13:02:44;3.73;;;2.20;;
1679;SDS011;838;51.794;12.258;2023-06-14T13:05:10;3.40;;;1.80;;
1679;SDS011;838;51.794;12.258;2023-06-14T13:07:36;6.13;;;2.03;;
1679;SDS011;838;51.794;12.258;2023-06-14T13:10:01;3.23;;;1.83;;
1679;SDS011;838;51.794;12.258;2023-06-14T13:12:27;2.50;;;1.50;;
1679;SDS011;838;51.794;12.258;2023-06-14T13:14:53;3.10;;;1.80;;
1679;SDS011;838;51.794;12.258;2023-06-14T13:17:19;3.80;;;2.23;;
1679;SDS011;838;51.794;12.258;2023-06-14T13:19:44;3.60;;;1.87;;
1679;SDS011;838;51.794;12.258;2023-06-14T13:22:10;3.03;;;2.00;;
1679;SDS011;838;51.794;12.258;2023-06-14T13:24:36;2.40;;;1.53;;
1679;SDS011;838;51.794;12.258;2023-06-14T13:27:02;4.63;;;2.20;;
1679;SDS011;838;51.794;12.258;2023-06-14T13:29:28;3.20;;;2.00;;
1679;SDS011;838;51.794;12.258;2023-06-14T13:31:55;2.67;;;1.93;;
1679;SDS011;838;51.794;12.258;2023-06-14T13:34:21;4.30;;;2.00;;
1679;SDS011;838;51.794;12.258;2023-06-14T13:36:48;3.10;;;2.13;;
1679;SDS011;838;51.794;12.258;2023-06-14T13:39:14;3.10;;;2.17;;
1679;SDS011;838;51.794;12.258;2023-06-14T13:41:40;2.80;;;2.00;;
1679;SDS011;838;51.794;12.258;2023-06-14T13:44:06;3.67;;;2.40;;
1679;SDS011;838;51.794;12.258;2023-06-14T13:46:31;3.33;;;2.20;;
1679;SDS011;838;51.794;12.258;2023-06-14T13:48:57;3.80;;;2.00;;
1679;SDS011;838;51.794;12.258;2023-06-14T13:51:23;3.87;;;2.67;;
1679;SDS011;838;51.794;12.258;2023-06-14T13:53:49;3.33;;;2.10;;
1679;SDS011;838;51.794;12.258;2023-06-14T13:56:16;3.03;;;1.90;;
1679;SDS011;838;51.794;12.258;2023-06-14T13:58:42;2.80;;;1.90;;
1679;SDS011;838;51.794;12.258;2023-06-14T14:01:08;2.80;;;2.00;;
1679;SDS011;838;51.794;12.258;2023-06-14T14:03:34;7.40;;;2.23;;
1679;SDS011;838;51.794;12.258;2023-06-14T14:06:00;3.67;;;1.70;;
1679;SDS011;838;51.794;12.258;2023-06-14T14:08:27;2.90;;;2.00;;
1679;SDS011;838;51.794;12.258;2023-06-14T14:10:53;3.50;;;2.10;;
1679;SDS011;838;51.794;12.258;2023-06-14T14:13:19;4.10;;;2.10;;
1679;SDS011;838;51.794;12.258;2023-06-14T14:15:46;4.40;;;1.43;;
1679;SDS011;838;51.794;12.258;2023-06-14T14:18:11;3.97;;;2.33;;
1679;SDS011;838;51.794;12.258;2023-06-14T14:20:37;2.87;;;1.80;;
1679;SDS011;838;51.794;12.258;2023-06-14T14:23:03;3.53;;;1.80;;
1679;SDS011;838;51.794;12.258;2023-06-14T14:25:29;3.87;;;2.33;;
1679;SDS011;838;51.794;12.258;2023-06-14T14:27:55;3.43;;;1.63;;
1679;SDS011;838;51.794;12.258;2023-06-14T14:30:21;3.00;;;1.80;;
1679;SDS011;838;51.794;12.258;2023-06-14T14:32:48;4.07;;;1.73;;
1679;SDS011;838;51.794;12.258;2023-06-14T14:35:16;3.60;;;1.90;;
1679;SDS011;838;51.794;12.258;2023-06-14T14:37:42;2.87;;;1.67;;
1679;SDS011;838;51.794;12.258;2023-06-14T14:40:08;5.00;;;2.30;;
1679;SDS011;838;51.794;12.258;2023-06-14T14:42:35;4.93;;;1.63;;
1679;SDS011;838;51.794;12.258;2023-06-14T14:45:01;3.40;;;1.70;;
1679;SDS011;838;51.794;12.258;2023-06-14T14:47:27;2.73;;;1.77;;
1679;SDS011;838;51.794;12.258;2023-06-14T14:49:53;3.70;;;1.80;;
1679;SDS011;838;51.794;12.258;2023-06-14T14:52:19;2.97;;;1.87;;
1679;SDS011;838;51.794;12.258;2023-06-14T14:54:44;3.50;;;2.10;;
1679;SDS011;838;51.794;12.258;2023-06-14T14:57:10;2.70;;;1.50;;
1679;SDS011;838;51.794;12.258;2023-06-14T14:59:36;3.13;;;1.77;;
1679;SDS011;838;51.794;12.258;2023-06-14T15:02:02;2.90;;;1.67;;
1679;SDS011;838;51.794;12.258;2023-06-14T15:04:27;2.80;;;1.60;;
1679;SDS011;838;51.794;12.258;2023-06-14T15:06:53;3.00;;;1.70;;
1679;SDS011;838;51.794;12.258;2023-06-14T15:09:19;4.23;;;1.70;;
1679;SDS011;838;51.794;12.258;2023-06-14T15:11:45;3.07;;;1.80;;
1679;SDS011;838;51.794;12.258;2023-06-14T15:14:10;2.70;;;1.77;;
1679;SDS011;838;51.794;12.258;2023-06-14T15:16:36;6.33;;;1.87;;
1679;SDS011;838;51.794;12.258;2023-06-14T15:19:02;4.00;;;2.00;;
1679;SDS011;838;51.794;12.258;2023-06-14T15:21:28;3.03;;;1.70;;
1679;SDS011;838;51.794;12.258;2023-06-14T15:23:53;2.40;;;1.60;;
1679;SDS011;838;51.794;12.258;2023-06-14T15:26:19;2.70;;;1.80;;
1679;SDS011;838;51.794;12.258;2023-06-14T15:28:45;2.90;;;1.93;;
1679;SDS011;838;51.794;12.258;2023-06-14T15:31:11;2.70;;;1.90;;